Time;durP1;ratioP1;P1;durP2;ratioP2;P2;SDS_P1;SDS_P2;PMS_P1;PMS_P2;Temp;Humidity;BMP_temperature;BMP_pressure;BME280_temperature;BME280_humidity;BME280_pressure;Samples;Min_cycle;Max_cycle;Signal;HPM_P1;HPM_P2
2023/08/07 00:00:17;;;;;;;0.00;0.00;;;15.10;90.90;;;;;;4998555;28;20050;-69
2023/08/07 00:02:43;;;;;;;0.00;0.00;;;15.10;90.90;;;;;;5003559;28;20048;-69
2023/08/07 00:05:08;;;;;;;0.10;0.10;;;15.10;91.10;;;;;;5007755;28;20773;-69
2023/08/07 00:07:34;;;;;;;0.00;0.00;;;15.10;91.00;;;;;;4997075;28;20140;-69
2023/08/07 00:10:01;;;;;;;0.00;0.00;;;15.10;91.10;;;;;;4997824;28;20041;-69
2023/08/07 00:12:27;;;;;;;0.00;0.00;;;15.10;90.80;;;;;;5002810;28;20061;-69
2023/08/07 00:14:52;;;;;;;0.00;0.00;;;15.00;90.70;;;;;;4999847;28;20069;-69
2023/08/07 00:17:18;;;;;;;0.00;0.00;;;15.00;90.50;;;;;;5010413;28;20058;-69
2023/08/07 00:19:44;;;;;;;0.00;0.00;;;15.00;90.90;;;;;;4998242;28;20046;-69
2023/08/07 00:22:09;;;;;;;0.00;0.00;;;15.00;91.10;;;;;;4997751;28;20086;-69
2023/08/07 00:24:35;;;;;;;0.00;0.00;;;14.90;91.20;;;;;;5006492;28;20105;-69
2023/08/07 00:27:01;;;;;;;0.00;0.00;;;15.00;91.30;;;;;;4994858;28;20096;-69
2023/08/07 00:29:26;;;;;;;0.00;0.00;;;15.00;91.20;;;;;;4992196;28;20046;-69
2023/08/07 00:31:52;;;;;;;0.10;0.10;;;15.00;91.30;;;;;;4992031;28;20084;-69
2023/08/07 00:34:17;;;;;;;0.00;0.00;;;15.10;91.30;;;;;;4992673;28;20046;-69
2023/08/07 00:36:43;;;;;;;0.00;0.00;;;15.00;91.50;;;;;;4992141;28;20112;-69
2023/08/07 00:39:09;;;;;;;1.40;1.30;;;15.00;91.40;;;;;;5004637;28;20088;-69
2023/08/07 00:41:34;;;;;;;0.00;0.00;;;15.00;91.30;;;;;;5001114;28;20478;-69
2023/08/07 00:44:00;;;;;;;0.10;0.10;;;15.10;91.40;;;;;;4996033;28;20050;-69
2023/08/07 00:46:29;;;;;;;0.00;0.00;;;15.10;91.40;;;;;;4997420;28;20046;-69
2023/08/07 00:48:54;;;;;;;0.00;0.00;;;15.10;91.40;;;;;;4991838;28;20447;-69
2023/08/07 00:51:22;;;;;;;0.00;0.00;;;15.10;91.40;;;;;;5007786;28;20053;-69
2023/08/07 00:53:48;;;;;;;0.10;0.10;;;15.10;91.50;;;;;;4992690;28;20048;-69
2023/08/07 00:56:15;;;;;;;0.20;0.20;;;15.10;91.60;;;;;;5002475;28;20054;-70
2023/08/07 00:58:40;;;;;;;0.15;0.15;;;15.10;91.60;;;;;;5004125;28;20053;-69
2023/08/07 01:01:07;;;;;;;0.00;0.00;;;15.10;91.70;;;;;;5003324;28;20051;-69
2023/08/07 01:03:33;;;;;;;0.00;0.00;;;15.10;91.70;;;;;;4976062;28;20117;-69
2023/08/07 01:05:58;;;;;;;0.00;0.00;;;15.10;91.80;;;;;;4991380;28;20133;-69
2023/08/07 01:08:25;;;;;;;0.00;0.00;;;15.10;91.80;;;;;;4994113;28;20064;-69
2023/08/07 01:10:59;;;;;;;0.10;0.10;;;15.10;91.90;;;;;;4993446;28;20057;-69
2023/08/07 01:13:31;;;;;;;0.00;0.00;;;15.10;91.80;;;;;;4993848;28;20048;-69
2023/08/07 01:16:01;;;;;;;1.17;1.17;;;15.00;91.90;;;;;;5009057;28;20099;-69
2023/08/07 01:18:27;;;;;;;1.77;1.00;;;14.90;92.00;;;;;;5007675;28;20510;-69
2023/08/07 01:20:53;;;;;;;0.00;0.00;;;14.90;91.90;;;;;;5002334;28;20070;-69
2023/08/07 01:23:18;;;;;;;0.00;0.00;;;14.90;92.10;;;;;;4997147;28;20132;-69
2023/08/07 01:25:44;;;;;;;0.00;0.00;;;14.90;92.20;;;;;;4992924;28;20640;-69
2023/08/07 01:28:23;;;;;;;0.00;0.00;;;14.90;92.30;;;;;;4997568;28;20135;-69
2023/08/07 01:30:54;;;;;;;0.00;0.00;;;14.80;92.20;;;;;;5002031;28;20038;-69
2023/08/07 01:33:32;;;;;;;0.00;0.00;;;14.80;92.30;;;;;;4995202;28;20121;-69
2023/08/07 01:36:01;;;;;;;20.98;0.50;;;14.80;92.10;;;;;;4991902;28;20660;-69
2023/08/07 01:38:28;;;;;;;0.00;0.00;;;14.80;92.20;;;;;;4990303;28;20053;-69
2023/08/07 01:40:54;;;;;;;0.00;0.00;;;14.80;92.10;;;;;;5005850;28;20053;-69
2023/08/07 01:43:20;;;;;;;0.00;0.00;;;14.70;92.30;;;;;;4997230;28;20044;-68
2023/08/07 01:45:46;;;;;;;0.00;0.00;;;14.80;92.40;;;;;;4991732;28;20518;-68
2023/08/07 01:48:12;;;;;;;0.00;0.00;;;14.80;92.30;;;;;;5006193;28;20045;-69
2023/08/07 01:50:38;;;;;;;0.00;0.00;;;14.80;92.30;;;;;;4997548;28;20099;-69
2023/08/07 01:53:05;;;;;;;0.00;0.00;;;14.80;92.30;;;;;;4993658;28;20490;-68
2023/08/07 01:55:31;;;;;;;0.00;0.00;;;14.80;92.30;;;;;;4999112;28;20042;-69
2023/08/07 01:57:56;;;;;;;0.00;0.00;;;14.80;92.30;;;;;;4990548;28;20122;-69
2023/08/07 02:00:22;;;;;;;0.00;0.00;;;14.70;92.30;;;;;;5004469;28;20041;-69
2023/08/07 02:02:48;;;;;;;1.77;0.75;;;14.70;92.30;;;;;;5003597;28;20561;-69
2023/08/07 02:05:14;;;;;;;0.10;0.10;;;14.70;92.30;;;;;;4990192;28;20088;-69
2023/08/07 02:07:40;;;;;;;0.00;0.00;;;14.70;92.30;;;;;;5006100;28;20042;-69
2023/08/07 02:10:06;;;;;;;0.00;0.00;;;14.70;92.30;;;;;;4993463;28;20096;-69
2023/08/07 02:12:34;;;;;;;0.00;0.00;;;14.70;92.20;;;;;;5004645;28;20627;-69
2023/08/07 02:15:00;;;;;;;0.00;0.00;;;14.60;92.10;;;;;;4996781;28;20045;-69
2023/08/07 02:17:27;;;;;;;0.00;0.00;;;14.70;92.20;;;;;;5006736;28;20049;-69
2023/08/07 02:19:53;;;;;;;0.00;0.00;;;14.70;92.10;;;;;;4994548;28;20038;-69
2023/08/07 02:22:19;;;;;;;0.00;0.00;;;14.60;92.10;;;;;;4992482;28;20377;-68
2023/08/07 02:24:44;;;;;;;0.30;0.30;;;14.60;92.10;;;;;;4992695;28;20495;-69
2023/08/07 02:27:10;;;;;;;0.00;0.00;;;14.60;92.10;;;;;;5006351;28;20050;-69
2023/08/07 02:29:36;;;;;;;0.00;0.00;;;14.60;92.20;;;;;;5009372;28;20124;-69
2023/08/07 02:32:02;;;;;;;0.00;0.00;;;14.60;92.20;;;;;;5001735;28;20089;-70
2023/08/07 02:34:31;;;;;;;0.00;0.00;;;14.60;92.20;;;;;;5009533;28;20050;-69
2023/08/07 02:36:57;;;;;;;0.00;0.00;;;14.60;92.40;;;;;;5007263;28;20521;-69
2023/08/07 02:39:23;;;;;;;0.52;0.52;;;14.50;92.50;;;;;;5007868;28;20081;-69
2023/08/07 02:41:48;;;;;;;0.00;0.00;;;14.60;92.70;;;;;;5001430;28;20046;-69
2023/08/07 02:44:14;;;;;;;0.65;0.65;;;14.60;92.80;;;;;;5002165;28;20042;-68
2023/08/07 02:46:39;;;;;;;0.00;0.00;;;14.60;92.90;;;;;;4996653;28;20475;-69
2023/08/07 02:49:05;;;;;;;0.00;0.00;;;14.60;92.90;;;;;;5007230;28;20041;-68
2023/08/07 02:51:32;;;;;;;0.10;0.10;;;14.60;92.90;;;;;;5005654;28;20054;-67
2023/08/07 02:53:57;;;;;;;2.05;1.88;;;14.60;93.00;;;;;;4994505;28;20117;-67
2023/08/07 02:56:23;;;;;;;0.00;0.00;;;14.60;93.10;;;;;;5000562;28;20130;-67
2023/08/07 02:58:48;;;;;;;0.00;0.00;;;14.70;93.40;;;;;;5008446;28;20089;-67
2023/08/07 03:01:14;;;;;;;0.30;0.30;;;14.70;93.50;;;;;;4998509;28;20561;-67
2023/08/07 03:03:39;;;;;;;0.00;0.00;;;14.80;93.60;;;;;;5007361;28;20103;-67
2023/08/07 03:06:05;;;;;;;0.00;0.00;;;14.80;93.50;;;;;;4996866;28;20045;-68
2023/08/07 03:08:31;;;;;;;0.52;0.52;;;14.90;93.50;;;;;;5007974;28;20125;-68
2023/08/07 03:10:58;;;;;;;0.55;0.55;;;14.90;93.50;;;;;;4999633;28;20076;-68
2023/08/07 03:13:26;;;;;;;0.00;0.00;;;15.00;93.40;;;;;;4993851;28;20093;-68
2023/08/07 03:16:03;;;;;;;0.00;0.00;;;15.00;93.20;;;;;;4997232;28;20792;-67
2023/08/07 03:18:29;;;;;;;0.00;0.00;;;15.00;93.10;;;;;;4996622;28;20050;-68
2023/08/07 03:20:55;;;;;;;0.00;0.00;;;15.00;93.00;;;;;;4999729;28;20050;-68
2023/08/07 03:23:22;;;;;;;0.00;0.00;;;15.00;92.90;;;;;;5006803;28;20578;-67
2023/08/07 03:25:47;;;;;;;0.00;0.00;;;15.00;92.90;;;;;;5000457;28;20039;-68
2023/08/07 03:28:13;;;;;;;0.05;0.05;;;15.00;92.80;;;;;;4996751;28;20406;-67
2023/08/07 03:30:38;;;;;;;0.00;0.00;;;15.00;92.80;;;;;;5007477;28;20042;-68
2023/08/07 03:33:04;;;;;;;0.10;0.10;;;14.90;92.50;;;;;;4999883;28;20038;-67
2023/08/07 03:35:30;;;;;;;0.00;0.00;;;15.00;92.30;;;;;;5000793;28;20111;-68
2023/08/07 03:37:55;;;;;;;0.00;0.00;;;15.00;92.10;;;;;;5007111;28;20049;-67
2023/08/07 03:40:21;;;;;;;0.00;0.00;;;15.00;92.00;;;;;;5010045;28;20042;-68
2023/08/07 03:42:46;;;;;;;0.10;0.10;;;15.00;91.90;;;;;;4997628;28;20042;-68
2023/08/07 03:45:13;;;;;;;0.10;0.10;;;15.00;91.80;;;;;;5002672;28;20042;-68
2023/08/07 03:47:39;;;;;;;0.00;0.00;;;15.00;91.70;;;;;;5002778;28;20137;-68
2023/08/07 03:50:05;;;;;;;0.05;0.05;;;15.00;91.60;;;;;;5002866;28;20121;-67
2023/08/07 03:52:30;;;;;;;0.10;0.10;;;15.00;91.60;;;;;;5004554;28;20119;-67
2023/08/07 03:54:56;;;;;;;0.00;0.00;;;15.00;91.50;;;;;;4992727;28;20046;-68
2023/08/07 03:57:21;;;;;;;0.08;0.08;;;14.90;91.50;;;;;;4995311;28;20550;-68
2023/08/07 03:59:47;;;;;;;0.08;0.08;;;15.00;91.40;;;;;;5011440;28;20499;-67
2023/08/07 04:02:13;;;;;;;0.10;0.10;;;15.00;91.30;;;;;;5000253;28;20411;-69
2023/08/07 04:04:38;;;;;;;4.55;0.95;;;15.00;91.30;;;;;;4995277;28;20455;-68
2023/08/07 04:07:04;;;;;;;0.00;0.00;;;15.00;91.20;;;;;;4994847;28;20503;-68
2023/08/07 04:09:29;;;;;;;0.00;0.00;;;14.90;91.40;;;;;;5005643;28;20092;-68
2023/08/07 04:11:55;;;;;;;0.00;0.00;;;14.90;91.40;;;;;;5006545;28;20124;-68
2023/08/07 04:14:20;;;;;;;0.00;0.00;;;14.90;91.50;;;;;;5005177;28;20471;-68
2023/08/07 04:16:46;;;;;;;2.55;1.48;;;14.90;91.40;;;;;;5000058;28;20607;-68
2023/08/07 04:19:11;;;;;;;0.85;0.30;;;14.90;91.50;;;;;;4996624;28;20046;-68
2023/08/07 04:21:37;;;;;;;0.47;0.45;;;14.80;91.80;;;;;;5002324;28;20054;-67
2023/08/07 04:24:10;;;;;;;1.55;0.85;;;14.80;91.90;;;;;;5003312;28;20045;-67
2023/08/07 04:26:36;;;;;;;0.00;0.00;;;14.80;91.80;;;;;;4996612;28;20514;-67
2023/08/07 04:29:01;;;;;;;0.00;0.00;;;14.80;91.70;;;;;;4991065;28;20038;-68
2023/08/07 04:31:27;;;;;;;0.00;0.00;;;14.80;91.60;;;;;;5000634;28;20053;-68
2023/08/07 04:33:52;;;;;;;0.00;0.00;;;14.70;91.50;;;;;;5012637;28;20103;-68
2023/08/07 04:36:18;;;;;;;0.00;0.00;;;14.80;91.60;;;;;;4998616;28;20074;-68
2023/08/07 04:38:43;;;;;;;1.55;0.73;;;14.70;91.60;;;;;;4991232;28;20054;-68
2023/08/07 04:41:09;;;;;;;0.00;0.00;;;14.70;91.60;;;;;;5000147;28;20046;-68
2023/08/07 04:43:35;;;;;;;0.08;0.08;;;14.60;91.50;;;;;;4999963;28;20113;-67
2023/08/07 04:46:00;;;;;;;0.10;0.10;;;14.70;91.50;;;;;;5003157;28;20049;-68
2023/08/07 04:48:26;;;;;;;0.00;0.00;;;14.70;91.50;;;;;;4992304;28;20065;-68
2023/08/07 04:50:51;;;;;;;0.00;0.00;;;14.80;91.40;;;;;;4997936;28;20046;-67
2023/08/07 04:53:17;;;;;;;0.75;0.50;;;14.70;91.30;;;;;;4982301;28;20054;-68
2023/08/07 04:55:43;;;;;;;0.10;0.10;;;14.70;91.00;;;;;;4994721;28;20042;-68
2023/08/07 04:58:08;;;;;;;0.00;0.00;;;14.70;90.80;;;;;;4996087;28;20371;-68
2023/08/07 05:00:34;;;;;;;0.00;0.00;;;14.70;90.70;;;;;;4980448;28;20483;-68
2023/08/07 05:03:01;;;;;;;0.00;0.00;;;14.70;90.30;;;;;;4989871;28;20511;-68
2023/08/07 05:05:27;;;;;;;0.00;0.00;;;14.70;90.00;;;;;;4991835;28;20050;-68
2023/08/07 05:07:55;;;;;;;0.00;0.00;;;14.80;90.10;;;;;;4991166;28;20418;-68
2023/08/07 05:10:20;;;;;;;0.00;0.00;;;14.80;90.00;;;;;;5003735;28;20502;-68
2023/08/07 05:12:46;;;;;;;0.10;0.10;;;14.80;90.10;;;;;;4990866;28;20050;-68
2023/08/07 05:15:11;;;;;;;0.00;0.00;;;14.80;90.00;;;;;;4997139;28;20735;-68
2023/08/07 05:17:37;;;;;;;0.00;0.00;;;14.90;90.10;;;;;;4992435;28;20520;-68
2023/08/07 05:20:04;;;;;;;0.05;0.05;;;14.90;90.00;;;;;;4993368;28;20510;-68
2023/08/07 05:22:30;;;;;;;0.00;0.00;;;14.90;89.70;;;;;;5008057;28;20095;-67
2023/08/07 05:24:55;;;;;;;0.00;0.00;;;15.00;89.50;;;;;;5007535;28;20038;-67
2023/08/07 05:27:21;;;;;;;0.22;0.22;;;14.90;89.10;;;;;;4991528;28;20101;-68
2023/08/07 05:29:46;;;;;;;0.00;0.00;;;14.90;88.80;;;;;;4991164;28;20124;-68
2023/08/07 05:32:14;;;;;;;0.00;0.00;;;14.90;88.40;;;;;;4992951;28;20038;-68
2023/08/07 05:34:40;;;;;;;0.00;0.00;;;15.00;87.60;;;;;;4998658;28;20406;-68
2023/08/07 05:37:06;;;;;;;0.20;0.20;;;15.00;87.60;;;;;;5001974;28;20041;-68
2023/08/07 05:39:32;;;;;;;0.00;0.00;;;14.90;87.40;;;;;;5010235;28;20041;-68
2023/08/07 05:41:58;;;;;;;0.00;0.00;;;15.00;87.30;;;;;;4993003;28;20053;-68
2023/08/07 05:44:24;;;;;;;0.20;0.20;;;15.00;87.10;;;;;;4991452;28;20044;-69
2023/08/07 05:46:49;;;;;;;4.47;3.53;;;15.00;87.10;;;;;;4988713;28;20052;-69
2023/08/07 05:49:16;;;;;;;0.63;0.63;;;15.00;87.30;;;;;;5009831;28;20046;-68
2023/08/07 05:51:41;;;;;;;0.17;0.17;;;15.00;87.30;;;;;;5003612;28;20518;-68
2023/08/07 05:54:07;;;;;;;0.00;0.00;;;15.00;87.10;;;;;;4996488;28;20053;-67
2023/08/07 05:56:33;;;;;;;0.00;0.00;;;15.10;86.90;;;;;;4993653;28;20042;-68
2023/08/07 05:58:58;;;;;;;0.00;0.00;;;15.10;86.30;;;;;;4990628;28;20046;-68
2023/08/07 06:01:30;;;;;;;0.00;0.00;;;15.10;85.50;;;;;;4995330;28;20054;-68
2023/08/07 06:03:56;;;;;;;;;;;15.10;85.60;;;;;;4992808;28;20054;-68
2023/08/07 06:06:21;;;;;;;0.10;0.10;;;15.10;84.80;;;;;;4994160;28;20465;-68
2023/08/07 06:08:47;;;;;;;0.00;0.00;;;15.10;84.60;;;;;;5001752;28;20038;-68
2023/08/07 06:11:12;;;;;;;0.00;0.00;;;15.00;84.60;;;;;;4999048;28;20565;-67
2023/08/07 06:13:39;;;;;;;0.00;0.00;;;15.10;84.80;;;;;;5009615;28;20426;-68
2023/08/07 06:16:05;;;;;;;2.72;1.45;;;15.00;84.30;;;;;;5001798;28;20503;-68
2023/08/07 06:18:31;;;;;;;0.00;0.00;;;15.00;84.90;;;;;;4990035;28;20104;-68
2023/08/07 06:20:57;;;;;;;0.93;0.90;;;15.00;85.40;;;;;;5000455;28;20073;-67
2023/08/07 06:23:35;;;;;;;0.32;0.32;;;15.00;86.00;;;;;;4996470;28;20089;-69
2023/08/07 06:26:08;;;;;;;0.00;0.00;;;15.00;85.40;;;;;;4998550;28;20503;-69
2023/08/07 06:28:36;;;;;;;0.00;0.00;;;15.00;85.20;;;;;;5009617;28;20049;-69
2023/08/07 06:31:15;;;;;;;0.40;0.40;;;15.00;85.40;;;;;;5014933;28;20124;-71
2023/08/07 06:33:46;;;;;;;2.60;2.38;;;15.10;85.50;;;;;;5013352;28;20054;-70
2023/08/07 06:36:13;;;;;;;0.00;0.00;;;15.10;85.40;;;;;;5012681;28;20053;-70
2023/08/07 06:38:38;;;;;;;0.00;0.00;;;15.10;85.60;;;;;;5011449;28;20045;-69
2023/08/07 06:41:04;;;;;;;0.00;0.00;;;15.20;85.50;;;;;;5015214;28;20053;-71
2023/08/07 06:43:30;;;;;;;0.05;0.05;;;15.30;85.20;;;;;;5016989;28;20052;-70
2023/08/07 06:45:57;;;;;;;0.00;0.00;;;15.30;85.50;;;;;;5016503;28;20046;-70
2023/08/07 06:48:23;;;;;;;0.00;0.00;;;15.20;85.20;;;;;;5017018;28;20058;-69
2023/08/07 06:50:50;;;;;;;0.10;0.10;;;15.30;85.10;;;;;;5019448;28;20041;-70
2023/08/07 06:53:16;;;;;;;0.00;0.00;;;15.30;84.70;;;;;;5022299;28;20050;-70
2023/08/07 06:55:45;;;;;;;0.00;0.00;;;15.30;84.30;;;;;;5012493;28;20053;-70
2023/08/07 06:58:10;;;;;;;1.10;0.95;;;15.30;84.80;;;;;;5017071;28;20052;-70
2023/08/07 07:00:37;;;;;;;0.95;0.95;;;15.20;83.80;;;;;;5011456;28;20041;-69
2023/08/07 07:03:03;;;;;;;0.10;0.10;;;15.10;83.20;;;;;;5015570;28;20100;-70
2023/08/07 07:05:30;;;;;;;0.00;0.00;;;14.80;84.00;;;;;;5014029;28;20053;-67
2023/08/07 07:07:56;;;;;;;0.00;0.00;;;14.60;84.70;;;;;;5014724;28;20057;-68
2023/08/07 07:10:22;;;;;;;0.00;0.00;;;14.50;85.80;;;;;;5013710;28;20046;-69
2023/08/07 07:12:48;;;;;;;0.00;0.00;;;14.50;86.30;;;;;;5015983;28;20040;-69
2023/08/07 07:15:13;;;;;;;0.00;0.00;;;14.50;87.10;;;;;;5013775;28;20137;-69
2023/08/07 07:17:39;;;;;;;0.00;0.00;;;14.50;87.40;;;;;;5013134;28;20081;-69
2023/08/07 07:20:05;;;;;;;0.00;0.00;;;14.40;87.60;;;;;;5016111;28;20072;-68
2023/08/07 07:22:31;;;;;;;0.00;0.00;;;14.60;87.70;;;;;;5015610;28;20069;-69
2023/08/07 07:24:57;;;;;;;0.00;0.00;;;14.60;87.90;;;;;;5015052;28;20105;-69
2023/08/07 07:27:25;;;;;;;0.00;0.00;;;14.60;87.70;;;;;;5015093;28;20054;-69
2023/08/07 07:29:50;;;;;;;0.00;0.00;;;14.80;86.40;;;;;;5011835;28;20533;-70
2023/08/07 07:32:16;;;;;;;0.00;0.00;;;15.00;84.90;;;;;;5015348;28;20046;-68
2023/08/07 07:34:42;;;;;;;0.30;0.30;;;15.20;84.50;;;;;;5015275;28;20041;-68
2023/08/07 07:37:08;;;;;;;0.00;0.00;;;15.30;83.60;;;;;;5018054;28;20057;-69
2023/08/07 07:39:34;;;;;;;1.88;1.65;;;15.50;82.80;;;;;;5019167;28;20042;-69
2023/08/07 07:42:00;;;;;;;0.10;0.10;;;15.50;83.10;;;;;;5000420;28;20038;-69
2023/08/07 07:44:26;;;;;;;0.30;0.30;;;15.40;83.40;;;;;;5018238;28;20042;-69
2023/08/07 07:46:51;;;;;;;6.18;1.55;;;15.00;84.20;;;;;;5018068;28;20490;-69
2023/08/07 07:49:17;;;;;;;0.00;0.00;;;14.70;84.90;;;;;;5010545;28;20060;-70
2023/08/07 07:51:44;;;;;;;0.00;0.00;;;14.60;85.80;;;;;;5017088;28;20041;-68
2023/08/07 07:54:10;;;;;;;0.00;0.00;;;14.50;86.30;;;;;;5014185;28;20495;-70
2023/08/07 07:56:36;;;;;;;0.32;0.25;;;14.50;87.10;;;;;;5016561;28;20499;-67
2023/08/07 07:59:02;;;;;;;0.00;0.00;;;14.40;88.00;;;;;;5016758;28;20033;-68
2023/08/07 08:01:28;;;;;;;0.10;0.10;;;14.30;88.30;;;;;;5018771;28;20111;-68
2023/08/07 08:03:54;;;;;;;0.00;0.00;;;14.30;88.40;;;;;;5017041;28;20069;-68
2023/08/07 08:06:19;;;;;;;0.10;0.10;;;14.30;88.80;;;;;;5016944;28;20041;-67
2023/08/07 08:08:45;;;;;;;0.00;0.00;;;14.40;89.10;;;;;;5016598;28;20041;-67
2023/08/07 08:11:10;;;;;;;0.70;0.70;;;14.50;89.00;;;;;;5015789;28;20691;-68
2023/08/07 08:13:38;;;;;;;0.00;0.00;;;14.50;88.00;;;;;;5013442;28;20088;-68
2023/08/07 08:16:05;;;;;;;0.00;0.00;;;14.70;88.10;;;;;;5018203;28;20136;-68
2023/08/07 08:18:30;;;;;;;0.00;0.00;;;14.90;85.90;;;;;;5016444;28;20077;-67
2023/08/07 08:20:56;;;;;;;0.10;0.10;;;15.10;83.40;;;;;;5013654;28;20076;-68
2023/08/07 08:23:22;;;;;;;0.00;0.00;;;15.20;80.90;;;;;;5016715;28;20038;-67
2023/08/07 08:25:48;;;;;;;0.00;0.00;;;15.40;77.70;;;;;;5018966;28;20034;-67
2023/08/07 08:28:14;;;;;;;0.00;0.00;;;15.40;75.40;;;;;;5008221;28;20045;-68
2023/08/07 08:30:40;;;;;;;0.80;0.52;;;15.40;76.90;;;;;;5009125;28;20451;-68
2023/08/07 08:33:05;;;;;;;0.00;0.00;;;15.50;76.90;;;;;;5009590;28;20034;-68
2023/08/07 08:35:31;;;;;;;0.20;0.20;;;15.60;73.00;;;;;;5011984;28;20046;-67
2023/08/07 08:37:57;;;;;;;0.00;0.00;;;15.80;74.20;;;;;;5001489;28;20073;-68
2023/08/07 08:40:24;;;;;;;0.00;0.00;;;15.90;74.70;;;;;;5002373;28;20072;-67
2023/08/07 08:42:51;;;;;;;0.80;0.70;;;16.00;75.20;;;;;;4988341;28;20050;-68
2023/08/07 08:45:18;;;;;;;0.00;0.00;;;16.00;74.50;;;;;;4997034;28;20060;-68
2023/08/07 08:47:46;;;;;;;0.00;0.00;;;16.00;74.80;;;;;;5003854;28;20054;-68
2023/08/07 08:50:14;;;;;;;0.00;0.00;;;16.10;72.60;;;;;;5001070;28;20062;-69
2023/08/07 08:52:43;;;;;;;0.00;0.00;;;16.30;72.80;;;;;;4997030;28;20667;-68
2023/08/07 08:55:10;;;;;;;0.00;0.00;;;16.40;72.30;;;;;;5004511;28;20074;-69
2023/08/07 08:57:38;;;;;;;0.00;0.00;;;16.30;72.00;;;;;;5004181;28;20430;-68
2023/08/07 09:00:17;;;;;;;0.00;0.00;;;16.20;72.00;;;;;;4998581;28;20038;-69
2023/08/07 09:02:47;;;;;;;0.00;0.00;;;16.10;74.60;;;;;;4992515;28;20153;-68
2023/08/07 09:05:16;;;;;;;1.08;0.75;;;16.00;75.30;;;;;;5011852;28;20052;-69
2023/08/07 09:07:42;;;;;;;0.10;0.10;;;16.00;75.70;;;;;;5001699;28;20054;-69
2023/08/07 09:10:11;;;;;;;1.20;1.00;;;16.10;75.80;;;;;;4998473;28;20042;-69
2023/08/07 09:12:54;;;;;;;0.38;0.38;;;16.10;73.50;;;;;;5001043;28;20054;-68
2023/08/07 09:15:21;;;;;;;0.00;0.00;;;16.10;73.10;;;;;;4998119;28;20037;-68
2023/08/07 09:17:48;;;;;;;0.00;0.00;;;16.20;74.10;;;;;;5003853;28;20152;-68
2023/08/07 09:20:14;;;;;;;0.00;0.00;;;16.30;74.70;;;;;;5003591;28;20058;-68
2023/08/07 09:22:41;;;;;;;0.05;0.05;;;16.40;71.70;;;;;;4996004;28;20046;-68
2023/08/07 09:25:09;;;;;;;0.00;0.00;;;16.50;70.90;;;;;;4999205;28;20419;-68
2023/08/07 09:27:38;;;;;;;0.00;0.00;;;16.40;66.20;;;;;;5007577;28;20065;-68
2023/08/07 09:30:10;;;;;;;0.00;0.00;;;16.40;68.70;;;;;;4997861;28;20107;-68
2023/08/07 09:32:36;;;;;;;0.15;0.15;;;16.50;69.20;;;;;;5002932;28;20042;-68
2023/08/07 09:35:04;;;;;;;0.00;0.00;;;16.60;69.80;;;;;;5014122;28;20405;-67
2023/08/07 09:37:30;;;;;;;0.10;0.10;;;16.70;70.00;;;;;;5014946;28;20063;-68
2023/08/07 09:39:57;;;;;;;0.00;0.00;;;16.70;69.10;;;;;;5009527;28;20038;-68
2023/08/07 09:42:22;;;;;;;0.00;0.00;;;16.60;67.70;;;;;;4990460;28;20109;-68
2023/08/07 09:44:48;;;;;;;0.00;0.00;;;16.50;69.00;;;;;;4991409;28;20446;-67
2023/08/07 09:47:19;;;;;;;0.00;0.00;;;16.30;70.00;;;;;;5002497;28;20060;-68
2023/08/07 09:49:45;;;;;;;0.47;0.47;;;16.10;70.50;;;;;;4992542;28;20054;-66
2023/08/07 09:52:15;;;;;;;6.00;0.50;;;16.10;71.70;;;;;;4989206;28;20054;-70
2023/08/07 09:54:41;;;;;;;0.00;0.00;;;16.00;71.70;;;;;;4992935;28;20455;-68
2023/08/07 09:57:07;;;;;;;1.17;0.80;;;16.00;72.50;;;;;;5001217;28;20046;-68
2023/08/07 09:59:33;;;;;;;0.00;0.00;;;16.00;71.50;;;;;;5004896;28;20049;-68
2023/08/07 10:02:02;;;;;;;0.00;0.00;;;16.00;71.50;;;;;;5006068;28;20129;-67
2023/08/07 10:04:27;;;;;;;0.00;0.00;;;16.10;70.70;;;;;;4998597;28;20100;-67
2023/08/07 10:06:53;;;;;;;0.10;0.10;;;16.30;70.70;;;;;;4987119;28;20058;-68
2023/08/07 10:09:20;;;;;;;0.00;0.00;;;16.50;71.40;;;;;;4993323;28;20125;-68
2023/08/07 10:11:46;;;;;;;0.00;0.00;;;16.70;69.90;;;;;;4999256;28;20057;-68
2023/08/07 10:14:15;;;;;;;0.03;0.03;;;16.90;71.00;;;;;;4993660;28;20031;-68
2023/08/07 10:16:41;;;;;;;0.00;0.00;;;16.70;66.80;;;;;;4998925;28;20053;-67
2023/08/07 10:19:09;;;;;;;0.88;0.85;;;16.80;67.60;;;;;;4995504;28;20122;-68
2023/08/07 10:21:44;;;;;;;0.00;0.00;;;16.80;66.70;;;;;;4994850;28;20092;-69
2023/08/07 10:24:11;;;;;;;0.00;0.00;;;17.00;66.90;;;;;;4993512;28;20042;-68
2023/08/07 10:26:42;;;;;;;0.10;0.10;;;17.10;65.80;;;;;;5002937;28;20057;-68
2023/08/07 10:29:13;;;;;;;5.47;1.65;;;17.20;64.40;;;;;;5000553;28;20100;-69
2023/08/07 10:31:41;;;;;;;0.10;0.10;;;17.20;64.60;;;;;;4989053;28;20503;-69
2023/08/07 10:34:07;;;;;;;0.00;0.00;;;17.20;65.00;;;;;;4991056;28;20049;-70
2023/08/07 10:36:34;;;;;;;0.00;0.00;;;17.10;64.80;;;;;;4997519;28;20046;-68
2023/08/07 10:39:14;;;;;;;0.10;0.10;;;17.10;67.00;;;;;;5007041;28;20046;-68
2023/08/07 10:41:44;;;;;;;0.10;0.10;;;17.10;65.30;;;;;;5008119;28;20108;-67
2023/08/07 10:44:33;;;;;;;0.00;0.00;;;17.10;66.50;;;;;;5004035;28;20085;-67
2023/08/07 10:46:58;;;;;;;0.00;0.00;;;17.10;67.40;;;;;;5002242;28;20088;-68
2023/08/07 10:49:32;;;;;;;0.28;0.25;;;17.10;68.80;;;;;;5006108;28;20469;-68
2023/08/07 10:51:58;;;;;;;0.38;0.38;;;17.30;68.70;;;;;;5001073;28;20058;-67
2023/08/07 10:54:25;;;;;;;0.00;0.00;;;17.40;68.80;;;;;;5022793;28;20391;-68
2023/08/07 10:56:56;;;;;;;0.10;0.10;;;17.30;63.90;;;;;;4998634;28;20066;-68
2023/08/07 10:59:22;;;;;;;0.00;0.00;;;17.30;65.50;;;;;;5005130;28;20045;-68
2023/08/07 11:01:54;;;;;;;0.10;0.10;;;17.20;66.60;;;;;;4988051;28;20105;-67
2023/08/07 11:04:24;;;;;;;0.10;0.10;;;17.20;63.20;;;;;;4988468;28;20115;-67
2023/08/07 11:06:49;;;;;;;0.10;0.10;;;17.20;65.50;;;;;;4996020;28;20064;-68
2023/08/07 11:09:15;;;;;;;1.35;0.95;;;17.30;65.80;;;;;;4994091;28;20042;-67
2023/08/07 11:11:46;;;;;;;0.30;0.30;;;17.20;68.10;;;;;;4992897;28;20568;-67
2023/08/07 11:14:16;;;;;;;0.00;0.00;;;17.20;67.40;;;;;;5003823;28;20053;-67
2023/08/07 11:16:43;;;;;;;0.00;0.00;;;17.30;66.20;;;;;;4992092;28;20044;-68
2023/08/07 11:19:09;;;;;;;0.00;0.00;;;17.20;68.80;;;;;;4991282;28;20139;-68
2023/08/07 11:21:35;;;;;;;0.30;0.30;;;17.30;68.50;;;;;;4989795;28;20691;-68
2023/08/07 11:24:01;;;;;;;0.00;0.00;;;17.20;66.90;;;;;;4999885;28;20053;-69
2023/08/07 11:26:28;;;;;;;0.10;0.10;;;17.30;68.00;;;;;;4997418;28;20053;-69
2023/08/07 11:28:54;;;;;;;0.00;0.00;;;17.50;69.00;;;;;;4977466;28;20427;-68
2023/08/07 11:31:20;;;;;;;0.00;0.00;;;17.50;70.30;;;;;;4991540;28;20049;-70
2023/08/07 11:33:46;;;;;;;2.25;1.45;;;17.30;69.30;;;;;;4996324;28;20050;-69
2023/08/07 11:36:13;;;;;;;0.05;0.05;;;17.30;68.30;;;;;;5009227;28;20037;-69
2023/08/07 11:38:42;;;;;;;0.00;0.00;;;17.10;67.50;;;;;;4978730;28;20577;-69
2023/08/07 11:41:09;;;;;;;0.00;0.00;;;16.90;69.50;;;;;;4999336;28;20495;-69
2023/08/07 11:43:37;;;;;;;0.00;0.00;;;16.60;72.20;;;;;;4975410;28;20063;-69
2023/08/07 11:46:08;;;;;;;0.00;0.00;;;16.40;75.40;;;;;;5002842;28;20046;-69
2023/08/07 11:48:35;;;;;;;0.10;0.10;;;16.10;77.10;;;;;;4990959;28;20057;-70
2023/08/07 11:51:02;;;;;;;0.17;0.17;;;16.00;78.30;;;;;;5002776;28;20050;-69
2023/08/07 11:53:29;;;;;;;0.00;0.00;;;15.90;79.10;;;;;;4992711;28;20086;-70
2023/08/07 11:56:00;;;;;;;0.00;0.00;;;16.00;80.00;;;;;;4998032;28;20050;-69
2023/08/07 11:58:37;;;;;;;0.00;0.00;;;16.10;78.70;;;;;;5012185;28;20060;-69
2023/08/07 12:01:14;;;;;;;0.98;0.45;;;16.10;77.40;;;;;;4994973;28;20038;-69
2023/08/07 12:03:50;;;;;;;0.00;0.00;;;16.30;76.80;;;;;;5002336;28;20042;-69
2023/08/07 12:06:16;;;;;;;0.10;0.10;;;16.60;77.10;;;;;;4999098;28;20040;-68
2023/08/07 12:08:42;;;;;;;0.00;0.00;;;16.60;76.30;;;;;;4998699;28;20045;-69
2023/08/07 12:11:10;;;;;;;0.00;0.00;;;16.70;76.60;;;;;;5007786;28;20038;-68
2023/08/07 12:13:44;;;;;;;0.00;0.00;;;16.50;77.60;;;;;;4996942;28;20056;-69
2023/08/07 12:16:15;;;;;;;0.00;0.00;;;16.40;79.50;;;;;;5000526;28;20056;-69
2023/08/07 12:18:51;;;;;;;0.00;0.00;;;16.00;80.60;;;;;;5002279;28;20050;-68
2023/08/07 12:21:25;;;;;;;0.17;0.17;;;16.00;81.50;;;;;;4996831;28;20042;-69
2023/08/07 12:23:51;;;;;;;0.00;0.00;;;16.00;81.50;;;;;;4992313;28;20034;-69
2023/08/07 12:26:18;;;;;;;0.03;0.03;;;16.10;81.40;;;;;;4997876;28;20050;-68
2023/08/07 12:28:43;;;;;;;0.00;0.00;;;16.00;79.80;;;;;;4990449;28;20042;-68
2023/08/07 12:31:09;;;;;;;1.10;0.63;;;16.10;80.70;;;;;;5000665;28;20457;-69
2023/08/07 12:33:35;;;;;;;0.00;0.00;;;16.10;78.70;;;;;;4998431;28;20450;-69
2023/08/07 12:36:02;;;;;;;5.72;1.90;;;16.10;79.00;;;;;;4991552;28;20049;-69
2023/08/07 12:38:28;;;;;;;1.40;0.80;;;16.10;73.00;;;;;;4991956;28;20542;-68
2023/08/07 12:40:54;;;;;;;0.00;0.00;;;16.20;73.80;;;;;;4992038;28;20049;-68
2023/08/07 12:43:20;;;;;;;0.00;0.00;;;16.30;73.00;;;;;;4991937;28;20414;-68
2023/08/07 12:45:46;;;;;;;0.00;0.00;;;16.40;73.50;;;;;;4991991;28;20448;-68